METAR/TAF

Belfast City Airport
BELFAST HARBOUR
Metar
EGAC 191220Z AUTO 23009KT 210V270 9999 FEW034/// 17/10 Q1007

12:20 UTC

Wind: 230° 9kt

Visibility: 9999 m

Sky: FEW 3400 ft

Temp: 17 deg C / 62.6 deg F

Dewpoint: 10 deg C / 50 deg F

Pressure: 1007 hPa

TAF
TAF EGAC 191057Z 1912/1921 24009KT 9999 SCT025 TEMPO 1912/1921 7000 SHRA PROB30 TEMPO 1912/1919 4000 +SHRA
Belfast International Airport
BELFAST/ALDERGRO
Metar
EGAA 191220Z 23010KT 210V270 9999 FEW028 SCT046 16/09 Q1007

12:20 UTC

Wind: 230° 10kt

Visibility: 9999 m

Sky: FEW 2800 ft

Temp: 16 deg C / 60.8 deg F

Dewpoint: 9 deg C / 48.2 deg F

Pressure: 1007 hPa

TAF
TAF EGAA 191056Z 1912/2012 24009KT 9999 SCT030 TEMPO 1912/1922 7000 SHRA PROB30 TEMPO 1912/1919 4000 +SHRA TEMPO 2010/2012 7000 SHRA
Print Friendly, PDF & Email